Time;durP1;ratioP1;P1;durP2;ratioP2;P2;SDS_P1;SDS_P2;PMS_P1;PMS_P2;Temp;Humidity;BMP_temperature;BMP_pressure;BME280_temperature;BME280_humidity;BME280_pressure;Samples;Min_cycle;Max_cycle;Signal;HPM_P1;HPM_P2
2022/04/10 00:00:58;;;;;;;10.73;2.88;;;4.00;99.90;;;;;;5091394;28;20494;-59
2022/04/10 00:03:25;;;;;;;15.02;2.58;;;4.10;99.90;;;;;;5090210;28;20126;-59
2022/04/10 00:05:55;;;;;;;11.55;3.28;;;4.10;99.90;;;;;;5091468;28;20048;-59
2022/04/10 00:08:30;;;;;;;13.80;3.70;;;4.10;99.90;;;;;;5091509;28;20044;-60
2022/04/10 00:11:00;;;;;;;12.02;3.17;;;4.00;99.90;;;;;;5091297;28;20036;-59
2022/04/10 00:13:34;;;;;;;24.95;3.28;;;4.00;99.90;;;;;;5091301;28;20130;-59
2022/04/10 00:16:02;;;;;;;15.75;2.75;;;4.00;99.90;;;;;;5091308;28;20547;-59
2022/04/10 00:18:32;;;;;;;8.27;2.40;;;4.00;99.90;;;;;;5092861;28;20148;-59
2022/04/10 00:21:02;;;;;;;14.18;2.88;;;4.00;99.90;;;;;;5095132;28;20624;-59
2022/04/10 00:23:34;;;;;;;14.82;2.63;;;3.90;99.90;;;;;;5095166;28;20116;-60
2022/04/10 00:26:02;;;;;;;14.13;2.42;;;3.90;99.90;;;;;;5094781;28;20040;-59
2022/04/10 00:28:35;;;;;;;18.48;3.05;;;3.90;99.90;;;;;;5094804;28;20093;-59
2022/04/10 00:31:02;;;;;;;17.90;2.85;;;4.00;99.90;;;;;;5094580;28;20043;-59
2022/04/10 00:33:28;;;;;;;12.05;3.10;;;4.00;99.90;;;;;;5110963;27;20048;-59
2022/04/10 00:35:56;;;;;;;16.65;3.33;;;4.10;99.90;;;;;;5094303;28;20063;-59
2022/04/10 00:38:26;;;;;;;12.00;2.40;;;4.10;99.90;;;;;;5094563;28;20044;-59
2022/04/10 00:41:00;;;;;;;14.35;2.90;;;4.10;99.90;;;;;;5094528;28;20494;-59
2022/04/10 00:43:32;;;;;;;20.85;3.72;;;4.10;99.90;;;;;;5094684;28;20098;-59
2022/04/10 00:46:03;;;;;;;19.55;4.25;;;4.10;99.90;;;;;;5094359;28;20040;-59
2022/04/10 00:48:29;;;;;;;14.50;2.08;;;4.10;99.90;;;;;;5093536;28;20100;-59
2022/04/10 00:53:45;;;;;;;11.88;2.45;;;4.20;99.90;;;;;;5094083;28;20040;-59
2022/04/10 00:56:17;;;;;;;15.48;2.72;;;4.20;99.90;;;;;;5094148;28;20075;-60
2022/04/10 00:58:47;;;;;;;14.45;2.65;;;4.20;99.90;;;;;;5094638;28;20040;-60
2022/04/10 01:01:18;;;;;;;13.27;2.95;;;4.10;99.90;;;;;;5094206;28;20105;-60
2022/04/10 01:03:51;;;;;;;12.57;2.67;;;4.00;99.90;;;;;;5093878;28;20040;-59
2022/04/10 01:06:25;;;;;;;16.27;2.83;;;4.00;99.90;;;;;;5093965;28;20036;-59
2022/04/10 01:09:00;;;;;;;11.18;3.00;;;4.10;99.90;;;;;;5093707;28;20051;-60
2022/04/10 01:11:32;;;;;;;13.77;2.25;;;4.10;99.90;;;;;;5094230;28;20797;-59
2022/04/10 01:14:00;;;;;;;12.57;2.30;;;4.00;99.90;;;;;;5093867;28;20029;-59
2022/04/10 01:16:34;;;;;;;11.25;2.72;;;3.90;99.90;;;;;;5093933;28;20470;-59
2022/04/10 01:19:05;;;;;;;13.30;2.50;;;3.90;99.90;;;;;;5093894;28;20029;-59
2022/04/10 01:21:42;;;;;;;10.73;2.17;;;4.00;99.90;;;;;;5094039;28;20044;-59
2022/04/10 01:24:12;;;;;;;10.32;2.78;;;3.90;99.90;;;;;;5092478;28;20097;-59
2022/04/10 01:26:41;;;;;;;23.92;2.67;;;3.80;99.90;;;;;;5094078;28;20428;-59
2022/04/10 01:29:16;;;;;;;16.88;2.55;;;3.90;99.90;;;;;;5093271;28;20040;-59
2022/04/10 01:31:49;;;;;;;19.13;2.83;;;3.90;99.90;;;;;;5093100;28;20546;-59
2022/04/10 01:34:22;;;;;;;12.38;2.20;;;3.80;99.90;;;;;;5093195;28;20612;-59
2022/04/10 01:36:59;;;;;;;15.35;2.85;;;3.80;99.90;;;;;;5093689;28;20032;-59
2022/04/10 01:39:31;;;;;;;16.85;3.67;;;3.80;99.90;;;;;;5093612;28;20051;-59
2022/04/10 01:42:01;;;;;;;15.18;2.78;;;3.70;99.90;;;;;;5093402;28;20089;-59
2022/04/10 01:44:31;;;;;;;21.92;2.97;;;3.70;99.90;;;;;;5093222;28;20105;-59
2022/04/10 01:47:02;;;;;;;13.40;2.95;;;3.70;99.90;;;;;;5092745;28;20091;-59
2022/04/10 01:49:37;;;;;;;23.75;2.92;;;3.60;99.90;;;;;;5093577;28;20035;-59
2022/04/10 01:52:08;;;;;;;16.77;2.45;;;3.60;99.90;;;;;;5093327;28;20040;-59
2022/04/10 01:54:41;;;;;;;18.42;3.15;;;3.50;99.90;;;;;;5092998;28;20043;-59
2022/04/10 01:57:13;;;;;;;14.52;3.03;;;3.50;99.90;;;;;;5093143;28;20072;-59
2022/04/10 01:59:44;;;;;;;17.70;3.28;;;3.50;99.90;;;;;;5093159;28;20436;-59
2022/04/10 02:02:14;;;;;;;13.43;2.58;;;3.50;99.90;;;;;;5093782;28;20416;-59
2022/04/10 02:04:50;;;;;;;19.67;2.75;;;3.50;99.90;;;;;;5092984;28;20063;-59
2022/04/10 02:07:18;;;;;;;16.83;2.92;;;3.50;99.90;;;;;;5092870;28;20051;-59
2022/04/10 02:09:45;;;;;;;;;;;3.40;99.90;;;;;;5092917;28;20032;-60
2022/04/10 02:12:18;;;;;;;19.00;2.85;;;3.40;99.90;;;;;;5092800;28;20383;-59
2022/04/10 02:14:45;;;;;;;18.88;3.65;;;3.30;99.90;;;;;;5092418;28;20046;-59
2022/04/10 02:17:11;;;;;;;18.70;3.05;;;3.30;99.90;;;;;;5092812;28;20044;-59
2022/04/10 02:19:42;;;;;;;16.35;3.20;;;3.30;99.90;;;;;;5092584;28;20048;-59
2022/04/10 02:22:11;;;;;;;12.07;2.70;;;3.30;99.90;;;;;;5092536;28;20476;-59
2022/04/10 02:24:39;;;;;;;13.02;2.90;;;3.30;99.90;;;;;;5092859;28;20036;-59
2022/04/10 02:27:10;;;;;;;15.00;3.00;;;3.30;99.90;;;;;;5092383;28;20497;-59
2022/04/10 02:29:43;;;;;;;16.00;2.85;;;3.30;99.90;;;;;;5092877;28;20036;-59
2022/04/10 02:32:12;;;;;;;13.77;2.63;;;3.30;99.90;;;;;;5092415;28;20044;-59
2022/04/10 02:34:41;;;;;;;16.45;2.88;;;3.20;99.90;;;;;;5091974;28;20052;-60
2022/04/10 02:37:10;;;;;;;16.00;2.75;;;3.20;99.90;;;;;;5092458;28;20086;-59
2022/04/10 02:39:42;;;;;;;12.80;3.50;;;3.20;99.90;;;;;;5092699;28;20039;-59
2022/04/10 02:42:13;;;;;;;7.93;2.63;;;3.10;99.90;;;;;;5092019;28;20036;-59
2022/04/10 02:44:47;;;;;;;16.92;2.65;;;3.10;99.90;;;;;;5092184;28;20040;-60
2022/04/10 02:47:21;;;;;;;12.60;2.63;;;3.10;99.90;;;;;;5092116;28;20044;-59
2022/04/10 02:49:50;;;;;;;15.85;2.67;;;3.10;99.90;;;;;;5092539;28;20043;-59
2022/04/10 02:52:17;;;;;;;17.83;2.72;;;3.10;99.90;;;;;;5092105;28;20089;-59
2022/04/10 02:54:47;;;;;;;17.88;2.67;;;3.10;99.90;;;;;;5091866;28;20059;-60
2022/04/10 02:57:17;;;;;;;19.30;2.92;;;3.10;99.90;;;;;;5090955;28;20067;-59
2022/04/10 02:59:43;;;;;;;11.18;2.65;;;3.20;99.90;;;;;;5092007;28;20119;-59
2022/04/10 03:02:09;;;;;;;11.40;3.17;;;3.20;99.90;;;;;;5092221;28;20118;-59
2022/04/10 03:04:35;;;;;;;10.02;2.05;;;3.30;99.90;;;;;;5091927;28;20036;-60
2022/04/10 03:07:04;;;;;;;9.45;2.00;;;3.30;99.90;;;;;;5091871;28;20529;-60
2022/04/10 03:09:34;;;;;;;9.38;2.17;;;3.30;99.90;;;;;;5092017;28;20036;-59
2022/04/10 03:12:05;;;;;;;13.88;2.20;;;3.20;99.90;;;;;;5091525;28;20047;-59
2022/04/10 03:14:34;;;;;;;12.13;2.33;;;3.20;99.90;;;;;;5091866;28;20504;-60
2022/04/10 03:17:02;;;;;;;5.45;1.60;;;3.30;99.90;;;;;;5091835;28;20470;-59
2022/04/10 03:19:30;;;;;;;11.07;2.35;;;3.30;99.90;;;;;;5091854;28;20495;-59
2022/04/10 03:22:01;;;;;;;11.60;1.88;;;3.30;99.90;;;;;;5092356;28;20462;-59
2022/04/10 03:24:30;;;;;;;9.25;1.50;;;3.30;99.90;;;;;;5091843;28;20028;-59
2022/04/10 03:27:01;;;;;;;10.30;2.15;;;3.40;99.90;;;;;;5092176;28;20036;-60
2022/04/10 03:29:31;;;;;;;5.13;1.50;;;3.40;99.90;;;;;;5091796;28;20459;-59
2022/04/10 03:32:02;;;;;;;9.93;1.90;;;3.30;99.90;;;;;;5091377;28;20040;-60
2022/04/10 03:34:34;;;;;;;6.15;1.98;;;3.30;99.90;;;;;;5091435;28;20148;-60
2022/04/10 03:37:02;;;;;;;10.10;1.90;;;3.30;99.90;;;;;;5091721;28;20124;-59
2022/04/10 03:39:30;;;;;;;11.73;2.13;;;3.40;99.90;;;;;;5091920;28;20039;-59
2022/04/10 03:42:01;;;;;;;10.70;1.65;;;3.30;99.90;;;;;;5091570;28;20792;-60
2022/04/10 03:44:28;;;;;;;;;;;3.40;99.90;;;;;;5091990;28;20047;-59
2022/04/10 03:47:01;;;;;;;8.23;1.50;;;3.40;99.90;;;;;;5091534;28;19923;-59
2022/04/10 03:49:31;;;;;;;9.75;2.20;;;3.50;99.90;;;;;;5091739;28;20032;-60
2022/04/10 03:52:01;;;;;;;7.55;1.58;;;3.60;99.90;;;;;;5091632;28;20390;-59
2022/04/10 03:54:28;;;;;;;4.35;1.33;;;3.60;99.90;;;;;;5094572;28;20039;-60
2022/04/10 03:57:01;;;;;;;4.13;1.33;;;3.50;99.90;;;;;;5095359;28;20092;-60
2022/04/10 03:59:32;;;;;;;7.35;1.48;;;3.60;99.90;;;;;;5095576;28;20040;-60
2022/04/10 04:02:02;;;;;;;5.07;1.38;;;3.60;99.90;;;;;;5095289;28;20043;-59
2022/04/10 04:04:33;;;;;;;5.15;1.48;;;3.50;99.90;;;;;;5095461;28;20115;-59
2022/04/10 04:07:03;;;;;;;10.75;1.38;;;3.40;99.90;;;;;;5095081;28;20048;-59
2022/04/10 04:09:33;;;;;;;11.40;1.35;;;3.50;99.90;;;;;;5095221;28;20051;-59
2022/04/10 04:12:00;;;;;;;4.20;1.20;;;3.50;99.90;;;;;;5094966;28;20108;-60
2022/04/10 04:14:29;;;;;;;6.60;1.60;;;3.50;99.90;;;;;;5094899;28;20368;-59
2022/04/10 04:17:00;;;;;;;8.95;1.30;;;3.50;99.90;;;;;;5094771;28;20032;-60
2022/04/10 04:19:28;;;;;;;11.65;1.10;;;3.50;99.90;;;;;;5094866;28;20047;-60
2022/04/10 04:22:00;;;;;;;6.57;1.42;;;3.50;99.90;;;;;;5095051;28;20503;-59
2022/04/10 04:24:30;;;;;;;5.00;1.05;;;3.50;99.90;;;;;;5094866;28;20475;-60
2022/04/10 04:26:59;;;;;;;7.88;1.48;;;3.40;99.90;;;;;;5094778;28;20513;-59
2022/04/10 04:29:30;;;;;;;7.60;1.42;;;3.40;99.90;;;;;;5094626;28;20050;-59
2022/04/10 04:31:59;;;;;;;8.77;1.30;;;3.30;99.90;;;;;;5094725;28;20102;-59
2022/04/10 04:34:27;;;;;;;8.20;1.58;;;3.40;99.90;;;;;;5094707;28;20145;-60
2022/04/10 04:37:01;;;;;;;6.75;1.65;;;3.30;99.90;;;;;;5094773;28;20044;-60
2022/04/10 04:39:33;;;;;;;7.60;1.23;;;3.30;99.90;;;;;;5094646;28;20042;-60
2022/04/10 04:42:03;;;;;;;6.32;1.50;;;3.30;99.90;;;;;;5094813;28;20056;-60
2022/04/10 04:44:33;;;;;;;4.97;1.35;;;3.30;99.90;;;;;;5093547;28;20043;-60
2022/04/10 04:47:03;;;;;;;4.60;1.10;;;3.20;99.90;;;;;;5094514;28;20437;-59
2022/04/10 04:49:37;;;;;;;6.32;1.00;;;3.20;99.90;;;;;;5094609;28;20075;-59
2022/04/10 04:52:05;;;;;;;9.90;1.52;;;3.30;99.90;;;;;;5093975;28;20039;-59
2022/04/10 04:54:34;;;;;;;5.97;1.27;;;3.10;99.90;;;;;;5094485;28;20079;-59
2022/04/10 04:57:03;;;;;;;6.47;1.40;;;3.20;99.90;;;;;;5094350;28;20040;-59
2022/04/10 04:59:32;;;;;;;7.78;1.45;;;3.20;99.90;;;;;;5094538;28;20040;-59
2022/04/10 05:02:03;;;;;;;5.38;1.08;;;3.10;99.90;;;;;;5094426;28;20067;-59
2022/04/10 05:04:36;;;;;;;5.97;1.70;;;3.10;99.90;;;;;;5094132;28;20136;-59
2022/04/10 05:07:10;;;;;;;10.13;1.42;;;3.20;99.90;;;;;;5094084;28;20036;-59
2022/04/10 05:09:42;;;;;;;8.80;1.98;;;3.20;99.90;;;;;;5094129;28;20512;-59
2022/04/10 05:12:12;;;;;;;8.52;2.00;;;3.20;99.90;;;;;;5094068;28;20048;-59
2022/04/10 05:14:39;;;;;;;7.13;1.48;;;3.20;99.90;;;;;;5093861;28;20044;-60
2022/04/10 05:17:06;;;;;;;7.60;1.60;;;3.20;99.90;;;;;;5093738;28;20052;-59
2022/04/10 05:19:35;;;;;;;7.45;2.25;;;3.10;99.90;;;;;;5093886;28;20416;-59
2022/04/10 05:22:02;;;;;;;10.82;2.10;;;3.10;99.90;;;;;;5094110;28;20155;-60
2022/04/10 05:24:36;;;;;;;9.63;1.73;;;3.10;99.90;;;;;;5094209;28;20502;-59
2022/04/10 05:27:06;;;;;;;8.98;1.88;;;3.00;99.90;;;;;;5093764;28;20044;-59
2022/04/10 05:29:36;;;;;;;5.65;1.33;;;3.00;99.90;;;;;;5093730;28;20048;-59
2022/04/10 05:32:04;;;;;;;7.50;1.60;;;3.00;99.90;;;;;;5093468;28;20113;-59
2022/04/10 05:34:35;;;;;;;8.48;1.92;;;3.00;99.90;;;;;;5093487;28;20091;-59
2022/04/10 05:37:03;;;;;;;7.82;1.55;;;3.10;99.90;;;;;;5093456;28;20048;-59
2022/04/10 05:39:29;;;;;;;6.72;1.95;;;3.10;99.90;;;;;;5093379;28;20040;-60
2022/04/10 05:41:57;;;;;;;11.15;2.00;;;3.20;99.90;;;;;;5093238;28;20458;-60
2022/04/10 05:44:25;;;;;;;12.00;1.98;;;3.20;99.90;;;;;;5093445;28;20055;-60
2022/04/10 05:46:51;;;;;;;7.87;1.70;;;3.30;99.90;;;;;;5093554;28;20119;-59
2022/04/10 05:49:20;;;;;;;5.95;1.60;;;3.30;99.90;;;;;;5093042;28;20036;-60
2022/04/10 05:51:51;;;;;;;8.77;2.00;;;3.30;99.90;;;;;;5093394;28;20565;-59
2022/04/10 05:54:21;;;;;;;6.88;1.55;;;3.40;99.90;;;;;;5093190;28;20044;-60
2022/04/10 05:56:48;;;;;;;7.75;1.67;;;3.50;99.90;;;;;;5093070;28;20119;-59
2022/04/10 05:59:14;;;;;;;8.85;1.50;;;3.50;99.90;;;;;;5092961;28;20044;-60
2022/04/10 06:01:40;;;;;;;7.75;1.77;;;3.60;99.90;;;;;;5092836;28;20048;-60
2022/04/10 06:04:07;;;;;;;6.18;1.40;;;3.70;99.90;;;;;;5093027;28;20036;-60
2022/04/10 06:06:33;;;;;;;8.27;1.77;;;3.70;99.90;;;;;;5093008;28;20379;-60
2022/04/10 06:09:00;;;;;;;7.45;1.30;;;3.90;99.90;;;;;;5093058;28;20036;-59
2022/04/10 06:11:28;;;;;;;9.60;1.48;;;4.00;99.90;;;;;;5091639;28;20067;-59
2022/04/10 06:13:59;;;;;;;6.43;1.73;;;4.00;99.90;;;;;;5092735;28;20063;-60
2022/04/10 06:16:25;;;;;;;10.50;1.80;;;4.00;99.90;;;;;;5092499;28;20032;-59
2022/04/10 06:18:51;;;;;;;10.52;2.22;;;4.00;99.90;;;;;;5092599;28;20044;-59
2022/04/10 06:21:21;;;;;;;13.48;1.98;;;4.10;99.90;;;;;;5092741;28;20051;-59
2022/04/10 06:23:48;;;;;;;6.30;1.73;;;4.10;99.90;;;;;;5092458;28;20443;-60
2022/04/10 06:26:18;;;;;;;15.23;2.28;;;4.10;99.90;;;;;;5092470;28;20032;-60
2022/04/10 06:28:44;;;;;;;9.88;2.22;;;4.10;99.90;;;;;;5092567;28;20042;-60
2022/04/10 06:31:11;;;;;;;4.20;1.30;;;4.10;99.90;;;;;;5092420;28;20466;-60
2022/04/10 06:33:37;;;;;;;8.32;2.20;;;4.00;99.90;;;;;;5092724;28;20036;-59
2022/04/10 06:36:04;;;;;;;10.20;1.85;;;3.90;99.90;;;;;;5092211;28;20048;-60
2022/04/10 06:38:33;;;;;;;7.97;1.70;;;3.90;99.90;;;;;;5092791;28;20429;-59
2022/04/10 06:41:03;;;;;;;5.50;1.98;;;3.90;99.90;;;;;;5092239;28;20040;-60
2022/04/10 06:43:35;;;;;;;14.45;2.20;;;4.30;99.90;;;;;;5091833;28;20175;-60
2022/04/10 06:46:04;;;;;;;9.35;2.17;;;4.70;99.90;;;;;;5092627;28;20318;-60
2022/04/10 06:48:33;;;;;;;9.77;1.80;;;5.00;99.90;;;;;;5092128;28;20051;-59
2022/04/10 06:51:03;;;;;;;8.25;1.60;;;5.10;99.90;;;;;;5092322;28;20040;-60
2022/04/10 06:53:32;;;;;;;6.95;1.50;;;5.10;99.90;;;;;;5092026;28;20118;-59
2022/04/10 06:56:03;;;;;;;13.77;2.10;;;5.00;99.90;;;;;;5091632;28;20051;-59
2022/04/10 06:58:33;;;;;;;10.50;2.05;;;5.20;99.90;;;;;;5092245;28;20071;-60
2022/04/10 07:01:00;;;;;;;7.03;2.60;;;5.40;99.90;;;;;;5091863;28;20048;-60
2022/04/10 07:03:26;;;;;;;5.30;1.73;;;5.70;99.90;;;;;;5091983;28;20043;-59
2022/04/10 07:05:55;;;;;;;7.65;1.77;;;6.10;99.90;;;;;;5091766;28;20092;-59
2022/04/10 07:08:25;;;;;;;8.35;2.28;;;6.50;99.90;;;;;;5092126;28;20051;-60
2022/04/10 07:11:01;;;;;;;6.38;1.60;;;6.90;99.90;;;;;;5092443;28;20078;-59
2022/04/10 07:13:28;;;;;;;8.48;1.80;;;7.00;99.90;;;;;;5091778;28;20055;-60
2022/04/10 07:16:01;;;;;;;8.25;1.40;;;6.90;99.90;;;;;;5091696;28;20186;-60
2022/04/10 07:18:29;;;;;;;8.93;1.55;;;7.10;99.90;;;;;;5091773;28;20047;-60
2022/04/10 07:20:59;;;;;;;9.48;1.70;;;7.40;99.90;;;;;;5091812;28;20427;-60
2022/04/10 07:26:22;;;;;;;6.22;1.58;;;8.10;99.90;;;;;;5091815;28;20040;-60
2022/04/10 07:28:54;;;;;;;10.18;1.77;;;8.30;99.90;;;;;;5094051;28;20079;-59
2022/04/10 07:31:29;;;;;;;8.73;2.00;;;8.20;99.90;;;;;;5095539;28;20036;-59
2022/04/10 07:34:00;;;;;;;7.75;1.73;;;8.10;99.90;;;;;;5095475;28;20062;-59
2022/04/10 07:36:32;;;;;;;10.55;1.50;;;8.10;99.90;;;;;;5095728;28;20414;-59
2022/04/10 07:39:02;;;;;;;11.35;1.67;;;8.40;99.90;;;;;;5095579;28;20036;-60
2022/04/10 07:41:32;;;;;;;11.98;2.63;;;8.40;99.90;;;;;;5095698;28;20097;-58
2022/04/10 07:44:01;;;;;;;9.77;1.58;;;8.10;99.90;;;;;;5095945;28;20478;-58
2022/04/10 07:49:23;;;;;;;8.48;1.67;;;8.70;99.90;;;;;;5095748;28;20143;-59
2022/04/10 07:51:57;;;;;;;9.05;2.67;;;9.10;99.90;;;;;;5095370;28;20040;-59
2022/04/10 07:54:25;;;;;;;7.18;1.45;;;9.40;99.90;;;;;;5095404;28;20436;-59
2022/04/10 07:56:51;;;;;;;8.47;2.00;;;9.40;99.90;;;;;;5095287;28;20040;-59
2022/04/10 07:59:18;;;;;;;4.60;1.33;;;9.40;99.90;;;;;;5094300;28;20044;-58
2022/04/10 08:01:46;;;;;;;10.30;2.05;;;9.70;99.90;;;;;;5095166;28;20089;-59
2022/04/10 08:04:13;;;;;;;7.63;1.55;;;9.90;99.90;;;;;;5095181;28;20044;-58
2022/04/10 08:06:43;;;;;;;13.60;1.70;;;9.90;99.90;;;;;;5095215;28;20040;-58
2022/04/10 08:09:14;;;;;;;10.77;1.70;;;9.80;99.90;;;;;;5095015;28;20402;-58
2022/04/10 08:11:45;;;;;;;12.30;2.30;;;9.90;99.90;;;;;;5094974;28;20044;-57
2022/04/10 08:14:11;;;;;;;6.07;1.55;;;10.20;99.90;;;;;;5095067;28;20072;-58
2022/04/10 08:16:39;;;;;;;10.40;2.00;;;10.20;99.90;;;;;;5095296;28;20109;-58
2022/04/10 08:19:07;;;;;;;11.18;2.97;;;10.20;99.90;;;;;;5094636;28;20127;-57
2022/04/10 08:21:36;;;;;;;10.20;1.70;;;10.30;99.90;;;;;;5095278;28;20113;-57
2022/04/10 08:24:08;;;;;;;7.20;1.58;;;10.30;99.90;;;;;;5095107;28;20167;-58
2022/04/10 08:26:41;;;;;;;11.85;1.83;;;10.40;99.90;;;;;;5094424;28;20047;-57
2022/04/10 08:29:15;;;;;;;8.95;2.22;;;10.00;99.90;;;;;;5094947;28;20114;-58
2022/04/10 08:31:43;;;;;;;6.47;1.52;;;9.90;99.90;;;;;;5094800;28;20036;-58
2022/04/10 08:34:17;;;;;;;11.30;3.03;;;10.00;99.90;;;;;;5093503;28;20048;-58
2022/04/10 08:36:46;;;;;;;6.35;1.38;;;10.00;99.90;;;;;;5093379;28;20079;-59
2022/04/10 08:39:13;;;;;;;11.52;2.33;;;10.50;99.90;;;;;;5092022;28;20036;-58
2022/04/10 08:41:39;;;;;;;7.43;1.63;;;10.40;99.90;;;;;;5093289;28;20119;-58
2022/04/10 08:44:05;;;;;;;7.53;1.90;;;10.20;99.90;;;;;;5093302;28;20035;-58
2022/04/10 08:46:33;;;;;;;7.78;1.60;;;10.00;99.90;;;;;;5093436;28;20508;-59
2022/04/10 08:49:00;;;;;;;5.13;1.70;;;10.20;99.90;;;;;;5093286;28;20052;-58
2022/04/10 08:51:29;;;;;;;8.95;1.60;;;10.50;99.90;;;;;;5093117;28;20040;-59
2022/04/10 08:53:56;;;;;;;5.78;1.80;;;10.60;99.90;;;;;;5093120;28;20501;-59
2022/04/10 08:56:23;;;;;;;7.20;1.33;;;10.40;99.90;;;;;;5093329;28;20036;-58
2022/04/10 08:58:50;;;;;;;6.30;1.75;;;10.50;99.90;;;;;;5091719;28;20087;-57
2022/04/10 09:01:20;;;;;;;12.50;1.75;;;10.20;99.90;;;;;;5093002;28;20076;-59
2022/04/10 09:03:46;;;;;;;9.35;2.30;;;10.30;99.90;;;;;;5093054;28;20036;-60
2022/04/10 09:06:13;;;;;;;7.53;1.67;;;10.50;99.90;;;;;;5092809;28;20036;-59
2022/04/10 09:08:40;;;;;;;4.05;1.23;;;10.50;99.90;;;;;;5093181;28;20119;-59
2022/04/10 09:11:10;;;;;;;5.75;1.27;;;10.50;99.90;;;;;;5092744;28;20044;-59
2022/04/10 09:13:49;;;;;;;6.38;1.52;;;10.60;99.90;;;;;;5092668;28;20124;-59
2022/04/10 09:16:22;;;;;;;6.22;1.95;;;10.70;99.90;;;;;;5092923;28;20032;-60
2022/04/10 09:18:53;;;;;;;8.18;1.35;;;10.90;99.90;;;;;;5092765;28;20047;-62
2022/04/10 09:21:25;;;;;;;9.45;1.67;;;10.90;99.90;;;;;;5093091;28;20046;-60
2022/04/10 09:23:54;;;;;;;4.10;1.45;;;11.10;99.90;;;;;;5092971;28;20455;-60
2022/04/10 09:26:20;;;;;;;4.95;1.20;;;11.20;99.90;;;;;;5092893;28;20055;-60
2022/04/10 09:28:52;;;;;;;4.38;1.33;;;11.20;99.90;;;;;;5092798;28;20051;-60
2022/04/10 09:31:26;;;;;;;6.93;1.38;;;11.40;99.90;;;;;;5090734;28;20109;-59
2022/04/10 09:33:52;;;;;;;6.35;1.17;;;11.20;99.90;;;;;;5092738;28;20051;-60
2022/04/10 09:36:39;;;;;;;5.68;1.33;;;11.50;99.90;;;;;;4997875;28;2698759;-60
2022/04/10 09:39:12;;;;;;;4.85;1.10;;;11.50;99.90;;;;;;5093286;28;20039;-60
2022/04/10 09:41:41;;;;;;;8.82;1.50;;;11.70;99.90;;;;;;5093275;28;20085;-59
2022/04/10 09:44:11;;;;;;;;;;;11.80;99.90;;;;;;5093727;28;20050;-59
2022/04/10 09:46:40;;;;;;;7.32;1.65;;;11.80;99.90;;;;;;5093321;28;20003;-60
2022/04/10 09:49:18;;;;;;;7.57;1.63;;;11.20;99.90;;;;;;5093234;28;20048;-61
2022/04/10 09:52:00;;;;;;;4.80;1.50;;;11.10;99.90;;;;;;5092245;28;20137;-61
2022/04/10 09:54:33;;;;;;;5.35;1.15;;;11.00;99.90;;;;;;5093212;28;20382;-60
2022/04/10 09:57:04;;;;;;;6.45;1.27;;;10.70;99.90;;;;;;5093122;28;20032;-59
2022/04/10 09:59:38;;;;;;;10.30;1.58;;;10.40;99.90;;;;;;5092155;28;20139;-59
2022/04/10 10:02:06;;;;;;;8.27;2.20;;;10.70;99.90;;;;;;5092926;28;20076;-60
2022/04/10 10:04:35;;;;;;;5.60;1.50;;;11.00;99.90;;;;;;5092820;28;20524;-60
2022/04/10 10:07:03;;;;;;;;;;;11.40;99.90;;;;;;5093240;28;20062;-60
2022/04/10 10:09:31;;;;;;;9.60;1.63;;;11.00;99.90;;;;;;5093029;28;19916;-59
2022/04/10 10:11:59;;;;;;;5.63;1.23;;;11.40;99.90;;;;;;5092592;28;20036;-59
2022/04/10 10:14:26;;;;;;;8.10;1.35;;;11.80;99.90;;;;;;5092564;28;20125;-60
2022/04/10 10:16:52;;;;;;;13.52;2.72;;;11.80;99.90;;;;;;5092531;28;20044;-58
2022/04/10 10:19:19;;;;;;;7.18;1.55;;;11.80;99.90;;;;;;5092589;28;20474;-58
2022/04/10 10:21:45;;;;;;;9.82;2.00;;;11.60;99.90;;;;;;5092787;28;20397;-59
2022/04/10 10:24:12;;;;;;;9.70;1.70;;;11.60;99.90;;;;;;5092742;28;20086;-59
2022/04/10 10:27:10;;;;;;;6.72;1.83;;;12.00;99.90;;;;;;5092341;28;20039;-59
2022/04/10 10:30:18;;;;;;;9.07;2.00;;;12.00;99.90;;;;;;5092299;28;20047;-59
2022/04/10 10:32:56;;;;;;;8.50;1.27;;;12.20;99.90;;;;;;5092566;28;20078;-59
2022/04/10 10:35:32;;;;;;;7.82;1.63;;;11.50;99.90;;;;;;5092158;28;20084;-59
2022/04/10 10:38:00;;;;;;;8.68;1.38;;;11.20;99.90;;;;;;5092714;28;20032;-59
2022/04/10 10:40:26;;;;;;;7.18;1.55;;;11.60;99.90;;;;;;5092193;28;20054;-58
2022/04/10 10:42:58;;;;;;;9.13;1.95;;;12.00;99.90;;;;;;5092167;28;20491;-58
2022/04/10 10:45:40;;;;;;;5.90;1.30;;;12.00;99.90;;;;;;5092121;28;20036;-59
2022/04/10 10:48:25;;;;;;;6.72;1.30;;;12.20;99.90;;;;;;5091983;28;20490;-58
2022/04/10 10:50:55;;;;;;;6.72;1.35;;;12.30;99.90;;;;;;5092261;28;20394;-59
2022/04/10 10:53:54;;;;;;;7.25;1.75;;;11.70;99.90;;;;;;5091865;28;20035;-58
2022/04/10 10:56:30;;;;;;;7.32;1.13;;;11.80;99.90;;;;;;5069065;28;20047;-58
2022/04/10 10:59:24;;;;;;;6.63;1.77;;;12.20;99.90;;;;;;5069674;28;20052;-58
2022/04/10 11:02:04;;;;;;;5.47;1.23;;;12.60;99.90;;;;;;5069482;28;20129;-59
2022/04/10 11:04:46;;;;;;;4.35;1.10;;;12.70;99.90;;;;;;5068893;28;20093;-58
2022/04/10 11:07:19;;;;;;;8.15;1.67;;;12.80;99.90;;;;;;5069261;28;20056;-59
2022/04/10 11:10:10;;;;;;;4.47;1.13;;;13.10;99.90;;;;;;5069358;28;20044;-58
2022/04/10 11:13:02;;;;;;;3.30;0.90;;;13.40;99.90;;;;;;5069356;28;20059;-59
2022/04/10 11:15:52;;;;;;;4.47;1.10;;;13.40;99.90;;;;;;5069181;28;20040;-58
2022/04/10 11:18:23;;;;;;;8.87;1.30;;;13.60;99.90;;;;;;5069239;28;20092;-58
2022/04/10 11:21:11;;;;;;;5.95;1.30;;;14.00;99.90;;;;;;5068901;28;20749;-58
2022/04/10 11:23:45;;;;;;;4.35;1.10;;;14.20;99.90;;;;;;5069140;28;20119;-58
2022/04/10 11:26:19;;;;;;;7.45;1.48;;;14.20;99.90;;;;;;5051594;28;20494;-59
2022/04/10 11:29:01;;;;;;;4.88;1.10;;;14.30;99.00;;;;;;5069204;28;20040;-58
2022/04/10 11:31:39;;;;;;;6.50;1.42;;;13.90;99.90;;;;;;5076251;28;20051;-59
2022/04/10 11:34:07;;;;;;;;;;;13.50;99.90;;;;;;5091961;28;20438;-58
2022/04/10 11:36:55;;;;;;;6.93;1.63;;;13.20;99.90;;;;;;5091427;28;19924;-58
2022/04/10 11:39:26;;;;;;;11.70;1.77;;;12.70;99.90;;;;;;5091470;28;20047;-59
2022/04/10 11:41:58;;;;;;;5.03;1.67;;;13.20;99.90;;;;;;5091658;28;20044;-59
2022/04/10 11:44:28;;;;;;;5.43;1.35;;;13.60;99.90;;;;;;5091257;28;20040;-59
2022/04/10 11:46:57;;;;;;;4.22;1.35;;;13.50;99.90;;;;;;5091487;28;20040;-59
2022/04/10 11:49:25;;;;;;;;;;;13.10;99.90;;;;;;5091781;28;20482;-57
2022/04/10 11:51:57;;;;;;;4.80;1.15;;;13.10;99.90;;;;;;5091699;28;19965;-56
2022/04/10 11:54:37;;;;;;;8.60;1.30;;;14.10;99.90;;;;;;5091873;28;20044;-56
2022/04/10 11:57:10;;;;;;;6.50;1.20;;;14.80;99.90;;;;;;5091735;28;20107;-56
2022/04/10 11:59:43;;;;;;;8.73;1.35;;;15.30;99.20;;;;;;5092082;28;20043;-56
2022/04/10 12:02:13;;;;;;;7.57;1.50;;;16.20;98.20;;;;;;5091558;28;20386;-55
2022/04/10 12:04:43;;;;;;;2.90;1.02;;;15.30;99.00;;;;;;5091714;28;20044;-56
2022/04/10 12:07:17;;;;;;;8.00;1.52;;;14.50;99.50;;;;;;5091996;28;20036;-56
2022/04/10 12:09:48;;;;;;;5.82;1.42;;;15.00;99.00;;;;;;5091585;28;20436;-56
2022/04/10 12:12:16;;;;;;;10.73;1.30;;;16.00;99.50;;;;;;5091601;28;20052;-56
2022/04/10 12:14:46;;;;;;;4.85;1.23;;;15.30;98.50;;;;;;5092472;28;20036;-56
2022/04/10 12:17:21;;;;;;;7.55;2.35;;;15.30;99.50;;;;;;5095603;28;20492;-56
2022/04/10 12:19:55;;;;;;;7.25;1.10;;;15.10;99.20;;;;;;5095482;28;20118;-56
2022/04/10 12:22:23;;;;;;;9.20;1.40;;;15.10;99.50;;;;;;5095585;28;20151;-56
2022/04/10 12:24:58;;;;;;;6.63;1.45;;;14.90;99.90;;;;;;5095424;28;20076;-57
2022/04/10 12:27:26;;;;;;;7.47;1.40;;;14.40;99.90;;;;;;5094243;28;20043;-56
2022/04/10 12:29:58;;;;;;;8.93;1.50;;;13.90;99.90;;;;;;5095166;28;20044;-56
2022/04/10 12:32:28;;;;;;;7.55;1.20;;;13.50;99.90;;;;;;5092621;28;20040;-56
2022/04/10 12:35:09;;;;;;;11.38;1.60;;;14.10;99.90;;;;;;5094908;28;20052;-56
2022/04/10 12:38:02;;;;;;;4.60;1.50;;;14.90;99.90;;;;;;5094978;28;20035;-56
2022/04/10 12:40:30;;;;;;;7.32;1.30;;;14.70;99.90;;;;;;5095243;28;20040;-55
2022/04/10 12:43:01;;;;;;;5.30;1.52;;;14.80;99.90;;;;;;5087893;28;20048;-56
2022/04/10 12:45:35;;;;;;;5.60;1.50;;;14.50;99.50;;;;;;5094313;28;20075;-56
2022/04/10 12:48:01;;;;;;;5.57;1.30;;;14.10;99.90;;;;;;5092812;28;20052;-56
2022/04/10 12:50:29;;;;;;;8.32;1.35;;;14.70;99.90;;;;;;5094494;28;20074;-55
2022/04/10 12:52:57;;;;;;;4.70;0.95;;;14.70;98.40;;;;;;5094612;28;20032;-55
2022/04/10 12:55:30;;;;;;;5.40;1.10;;;14.80;97.80;;;;;;5092997;28;20050;-55
2022/04/10 12:58:00;;;;;;;4.50;1.10;;;15.20;98.00;;;;;;5094536;28;20060;-56
2022/04/10 13:00:31;;;;;;;3.03;0.90;;;15.00;97.70;;;;;;5094591;28;20052;-55
2022/04/10 13:03:19;;;;;;;4.68;1.40;;;15.50;98.10;;;;;;5094319;28;20122;-56
2022/04/10 13:05:58;;;;;;;3.00;1.33;;;15.50;97.90;;;;;;5094406;28;20476;-55
2022/04/10 13:08:29;;;;;;;5.85;1.60;;;15.50;99.00;;;;;;5094350;28;20048;-56
2022/04/10 13:10:58;;;;;;;4.53;1.48;;;15.40;99.40;;;;;;5094442;28;20036;-56
2022/04/10 13:13:27;;;;;;;3.78;1.10;;;15.60;98.80;;;;;;5093242;28;20084;-56
2022/04/10 13:15:56;;;;;;;;;;;15.80;99.10;;;;;;5094611;28;20036;-56
2022/04/10 13:18:30;;;;;;;7.75;1.42;;;15.90;98.10;;;;;;5094039;28;19920;-56